Aérodrome :
LOGIN :

S'inscrire | Disclaimer

   EN    FR    IT 

 










Légende :    VFR   VFR Marginal   IFR   IFR Intensif   IFR Très Intensif
Visi : 
Plafond : 
>= 8 km
>= 3000ft
5 à 8 km
1000 à 3000 ft
1500m à 5 km
500 à 1000 ft
800 à 1500m
200 à 500 ft
< 800m
< 200 ft
Symboles :   Orages  Brouillard  Fortes neiges  Fortes précipitations  Vent > 20 kt
SIGMETs :   Divers  Orages  Givrage  Turbulence  Onde Orograph.  Cendres Volcan.






- Altitude de l'aérodrome : 164 ft
- Code IATA : VBY


ESSV - Visby

DERNIER METAR :
  • 251250Z 10017KT 9999 -SNRA SCT008 BKN017 02/00 Q0988 R21/29//95

METARs EXPIRÉS :
  • 251220Z 10017KT 8000 -SN FEW007 BKN029 02/00 Q0988 R21/29//95
  • 251150Z 11014KT 9999 -RA FEW006 BKN009 02/01 Q0989 R21/29//95
  • 251120Z 11012KT 9999 -RA FEW006 BKN009 03/01 Q0990 R21/29//95
  • 251050Z 11011KT 9999 -RA SCT010 BKN024 03/01 Q0990 R21/29//95
  • 251020Z 10012KT 9999 SCT011 03/01 Q0991 R21/19//95

TAF TAF ESSV
Valide du 25 à 12h jusqu'au 25 à 21h UTC


251115Z 2512/2521 10008KT 8000 -RA BKN016
PROB40 2512/2521 10010G23KT 3000 RASN BKN003



MET'MAP, la Météo Aéronautique d'un coup d'oeil ! - Copyright ORBIFLY Décembre 2007 - Disclaimer

ORBIFLY MET'MAP TEAM :

Programmation & Développement : Alexandra Zaïnal
Sur une idée originale de : Baudouin d'Aumeries
Assistance à la programmation : Marc-Olivier Méhu
Soutien technique & logistique : Manuel Goepfert

Contact : metmap@orbifly.com




SOURCES & CREDITS :

   NOAA